Terminal Aerodrome Forecast
Issued by NWS

Home | Current Version | Previous Version | Text Only | Print | Product List | Glossary On
Versions: 1 2 3 4 5 6 7 8 9 10 11 12 13 14 15 16 17 18 19 20 21
000
FTUS46 KLOX 292340
TAFSBA
TAF
KSBA 292340Z 3000/3024 24010KT P6SM SCT250
     FM300300 VRB03KT P6SM SCT250
     FM300900 VRB03KT P6SM BKN006
     FM301300 09004KT 4SM BR OVC003
     FM301600 14003KT 6SM BR OVC006
     FM301800 18005KT P6SM OVC008
     FM302100 24007KT P6SM SCT012=

USA.gov is the U.S. government's official web portal to all federal, state and local government web resources and services.